• Join FlightAware (Why Join?)
  • Login
  • US Flag 
07:53AM EDT


 

Airport Tracker/Info


-or-


 

Live Flight TrackerFlight Track Log ✈ LXJ437 ✈ 23-Jun-2013 ✈ KCIU - KMSP

Flight Track Log - Related Links

Times and Time Zones

All times are in EDT time to prevent confusion due to time zone crossing. See the LXJ437 flight status page for this flight to view local times or setup timezone preferences in your user account.

Time Position Orientation Groundspeed Altitude Reporting Facility
EDT Latitude Longitude Course Direction KTS MPH feet Rate Location/Type
05:35PM 46.2167 -84.4500 180° South 160 184 2,100  Level Toronto Center
05:36PM 46.1667 -84.4500 180° South 180 207 5,100 3,180 Climbing Toronto Center
05:37PM 46.1500 -84.5167 250° West 210 242 8,500 3,300 Climbing Toronto Center
05:38PM 46.1000 -84.6167 234° Southwest 270 311 11,700 3,420 Climbing Toronto Center
05:39PM 46.0667 -84.7339 248° West 323 372 15,400 3,900 Climbing Minneapolis Center
05:40PM 46.0114 -84.8667 239° Southwest 360 414 19,800 2,880 Climbing Minneapolis Center
05:41PM 45.9592 -84.9931 239° Southwest 384 442 21,400 2,280 Climbing Minneapolis Center
05:42PM 45.8978 -85.1386 239° Southwest 419 482 24,600 3,600 Climbing Minneapolis Center
05:43PM 45.8275 -85.3089 239° Southwest 417 480 28,900 3,000 Climbing Minneapolis Center
05:44PM 45.7697 -85.4467 239° Southwest 408 470 30,900 1,800 Climbing Minneapolis Center
05:45PM 45.7086 -85.5892 238° Southwest 421 484 32,700 1,800 Climbing Minneapolis Center
05:46PM 45.6603 -85.7033 239° Southwest 422 486 34,700 1,740 Climbing Minneapolis Center
05:47PM 45.5900 -85.8719 239° Southwest 415 478 36,300 1,800 Climbing Minneapolis Center
05:48PM 45.5292 -86.0139 239° Southwest 420 483 38,500 1,740 Climbing Minneapolis Center
05:49PM 45.4581 -86.1783 238° Southwest 413 475 39,900 720 Climbing Minneapolis Center
05:51PM 45.3983 -86.3208 239° Southwest 418 481 40,000  Climbing Minneapolis Center
05:52PM 45.3386 -86.4583 238° Southwest 415 478 40,000  Level Minneapolis Center
05:53PM 45.2889 -86.6006 244° Southwest 411 473 40,000  Level Minneapolis Center
05:54PM 45.2778 -86.7619 264° West 414 476 40,000 -180 Level Minneapolis Center
05:55PM 45.2642 -86.9878 265° West 413 475 39,700 -660 Descending Minneapolis Center
05:56PM 45.2539 -87.1511 265° West 417 480 38,700 -840 Descending Minneapolis Center
05:57PM 45.2431 -87.3178 265° West 424 488 38,000 -360 Descending Minneapolis Center
05:58PM 45.2319 -87.4839 265° West 425 489 38,000  Level Minneapolis Center
05:59PM 45.2214 -87.6522 265° West 430 495 38,000  Level Minneapolis Center
06:00PM 45.2100 -87.8175 264° West 424 488 38,000  Level Minneapolis Center
06:01PM 45.1961 -88.0183 264° West 428 493 38,000  Level Minneapolis Center
06:02PM 45.1836 -88.1858 264° West 430 495 38,000 -240 Level Minneapolis Center
06:03PM 45.1714 -88.3525 264° West 426 490 37,600 -720 Descending Minneapolis Center
06:04PM 45.1589 -88.5186 264° West 426 490 36,600 -780 Descending Minneapolis Center
06:05PM 45.1472 -88.6853 264° West 428 493 36,000 -300 Descending Minneapolis Center
06:06PM 45.1328 -88.8506 263° West 425 489 36,000  Level Minneapolis Center
06:07PM 45.1197 -89.0175 264° West 426 490 36,000  Level Minneapolis Center
06:08PM 45.1042 -89.2156 264° West 421 484 36,000 -360 Level Minneapolis Center
06:09PM 45.0903 -89.3814 263° West 423 487 35,300 -900 Descending Minneapolis Center
06:10PM 45.0761 -89.5578 264° West 430 495 34,200 -1,020 Descending Minneapolis Center
06:11PM 45.0611 -89.7239 263° West 429 494 33,200 -1,020 Descending Minneapolis Center
06:12PM 45.0478 -89.8881 263° West 434 499 32,200 -600 Descending Minneapolis Center
06:13PM 45.0322 -90.0603 263° West 439 505 32,000 -120 Descending Minneapolis Center
06:14PM 45.0319 -90.2331 270° West 438 504 32,000  Level Minneapolis Center
06:16PM 45.0347 -90.4367 271° West 431 496 32,000  Level Minneapolis Center
06:17PM 45.0381 -90.6381 271° West 427 491 32,000  Level Minneapolis Center
06:18PM 45.0394 -90.8083 271° West 432 497 32,000 -480 Level Minneapolis Center
06:19PM 45.0414 -90.9664 271° West 427 491 31,100 -1,860 Descending Minneapolis Center
06:20PM 45.0442 -91.1261 271° West 414 476 28,200 -3,180 Descending Minneapolis Center
06:21PM 45.0444 -91.3147 270° West 405 466 24,600 -3,240 Descending Minneapolis Center
06:22PM 45.0458 -91.4669 271° West 395 455 21,600 -2,460 Descending Minneapolis Center
06:23PM 45.0464 -91.5831 270° West 381 438 19,600 -2,400 Descending Minneapolis Center
06:24PM 45.0461 -91.7581 270° West 376 433 16,700 -2,400 Descending Minneapolis Center
06:25PM 45.0494 -91.8956 272° West 359 413 14,700 -1,800 Descending Minneapolis Center
06:26PM 45.0486 -92.0278 270° West 340 391 13,000 -1,560 Descending Minneapolis Center
06:27PM 45.0489 -92.1822 270° West 328 377 11,500 -1,020 Descending Minneapolis Center
06:28PM 45.0475 -92.3119 269° West 332 382 11,000 -300 Descending Minneapolis Center
06:29PM 45.0131 -92.4306 248° West 327 376 11,000  Level Minneapolis Center
06:30PM 44.9594 -92.5356 234° Southwest 329 379 11,000  Level Minneapolis Center
06:31PM 44.9094 -92.6419 236° Southwest 327 376 11,000 -1,500 Level Minneapolis Center
06:32PM 44.8592 -92.7108 224° Southwest 263 303 7,900 -2,640 Descending Minneapolis Center
06:33PM 44.8078 -92.8056 233° Southwest 257 296 5,600 -1,620 Descending Minneapolis Center
06:34PM 44.7750 -92.8933 242° Southwest 259 298 4,600 -840 Descending Minneapolis Center
06:35PM 44.7758 -92.9714 271° West 252 290 4,000 -480 Descending Minneapolis Center
06:36PM 44.8125 -93.0592 301° West 204 235 3,700 -720 Descending Minneapolis Center
06:37PM 44.8375 -93.1172 301° West 178 205 2,600 -1,140 Descending Minneapolis Center
06:38PM 44.8594 -93.1686 301° West 125 144 1,400 -1,200 Descending Minneapolis Center
06:40PM 44.8667 -93.2167 299° West  Level FlightAware Approximate
06:47PM 44.8820 -93.2218 299° West  Level Estimated
06:48PM 44.8820 -93.2218 299° West  Level Estimated